Latest Weather Observations for Portland Airport

IDV60801

Issued at 1:31 am EDT Friday 6 March 2015 (issued every 30 minutes, with the page automatically refreshed every 10 minutes)

About weather observations | Map of weather stations | Latest weather observations for VIC | Other Formats
Station Details ID: 090171 Name: CASHMORE AIRPORT Lat: -38.31 Lon: 141.47 Height: 80.9 m
Data from the previous 72 hours. | See also: Recent months at Portland Airport
Date/Time
EDT
Temp
°C
App
Temp
°C
Dew
Point
Rel
Hum
%
Delta-T
°C
Wind Press
QNH
hPa
Press
MSL
hPa
Rain
since 9 am
mm
Dir
 
Spd
km/h
Gust
km/h
Spd
kts
Gust
kts
06/01:30am 14.5 6.2 9.3 71 2.7 W 43 63 23 34 1015.2 1015.0 0.0
06/01:08am 14.8 7.7 9.6 71 2.7 W 37 56 20 30 1015.3 1015.1 0.0
06/01:00am 14.7 6.8 9.3 70 2.8 W 41 50 22 27 1015.3 1015.1 0.0
06/12:32am 14.2 7.7 8.8 70 2.7 W 33 52 18 28 1015.3 1015.1 0.0
06/12:30am 14.2 7.3 8.8 70 2.7 W 35 52 19 28 1015.3 1015.1 0.0
06/12:01am 14.7 7.5 9.1 69 2.9 W 37 56 20 30 1015.7 1015.6 0.0
06/12:00am 14.6 7.4 9.0 69 2.9 W 37 50 20 27 1015.8 1015.7 0.0
 
Date/Time
EDT
Temp
°C
App
Temp
°C
Dew
Point
Rel
Hum
%
Delta-T
°C
Wind Press
QNH
hPa
Press
MSL
hPa
Rain
since 9 am
mm
Dir
 
Spd
km/h
Gust
km/h
Spd
kts
Gust
kts
05/11:30pm 14.2 6.4 8.4 68 2.9 W 39 50 21 27 1016.3 1016.2 0.0
05/11:00pm 14.6 8.4 9.4 71 2.7 W 32 46 17 25 1016.7 1016.6 0.0
05/10:31pm 14.4 8.2 9.2 71 2.7 W 32 50 17 27 1016.7 1016.6 0.0
05/10:30pm 14.4 8.2 9.4 72 2.6 W 32 44 17 24 1016.8 1016.7 0.0
05/10:00pm 14.2 7.7 8.2 67 3.0 W 32 44 17 24 1016.8 1016.7 0.0
05/09:30pm 14.1 7.6 8.3 68 2.9 W 32 44 17 24 1017.1 1017.0 0.0
05/09:00pm 13.8 7.2 7.8 67 3.0 WSW 32 41 17 22 1017.1 1017.0 0.0
05/08:30pm 14.0 7.6 8.4 69 2.8 WSW 32 46 17 25 1017.3 1017.2 0.0
05/08:00pm 14.3 7.9 8.7 69 2.8 W 32 39 17 21 1017.3 1017.2 0.0
05/07:30pm 14.3 8.5 8.0 66 3.1 W 28 37 15 20 1017.8 1017.7 0.0
05/07:00pm 14.4 8.0 7.0 61 3.6 WSW 30 39 16 21 1018.0 1017.9 0.0
05/06:30pm 14.8 7.9 6.6 58 4.0 WSW 32 41 17 22 1018.2 1018.1 0.0
05/06:00pm 15.0 8.0 6.8 58 4.0 W 33 46 18 25 1018.2 1018.1 0.0
05/05:30pm 15.3 8.7 7.6 60 3.8 W 32 43 17 23 1018.2 1018.1 0.0
05/05:00pm 15.5 9.2 7.3 58 4.1 WSW 30 41 16 22 1018.6 1018.5 0.0
05/04:30pm 15.6 8.7 6.6 55 4.4 WSW 32 41 17 22 1018.8 1018.7 0.0
05/04:00pm 15.4 8.5 7.2 58 4.1 W 33 44 18 24 1019.0 1018.9 0.0
05/03:30pm 16.5 10.1 6.9 53 4.8 W 30 39 16 21 1019.2 1019.1 0.0
05/03:00pm 16.5 9.6 6.3 51 5.0 WSW 32 39 17 21 1019.4 1019.3 0.0
05/02:30pm 16.7 9.6 5.6 48 5.4 WSW 32 43 17 23 1019.5 1019.4 0.0
05/02:00pm 15.9 9.9 6.9 55 4.4 WSW 28 39 15 21 1020.1 1020.0 0.0
05/01:30pm 16.2 9.7 6.3 52 4.8 WSW 30 43 16 23 1020.3 1020.2 0.0
05/01:16pm 16.7 10.4 5.6 48 5.4 WSW 28 46 15 25 1020.2 1020.1 0.0
05/01:00pm 17.4 11.2 6.3 48 5.5 WSW 28 43 15 23 1020.2 1020.1 0.0
05/12:30pm 16.3 10.2 5.0 47 5.4 SW 26 39 14 21 1020.7 1020.6 0.0
05/12:00pm 15.4 10.1 5.0 50 4.9 SW 22 32 12 17 1020.9 1020.8 0.0
05/11:30am 15.7 10.2 4.1 46 5.4 SW 22 35 12 19 1020.9 1020.8 0.0
05/11:00am 15.3 10.1 5.5 52 4.7 SSW 22 33 12 18 1020.6 1020.5 0.0
05/10:30am 14.9 9.2 4.9 51 4.7 SW 24 37 13 20 1020.3 1020.2 0.0
05/10:00am 14.5 9.9 6.3 58 3.9 SSW 20 33 11 18 1020.1 1020.0 0.0
05/09:30am 14.1 8.9 5.7 57 4.0 SSW 22 39 12 21 1019.6 1019.5 0.0
05/09:00am 13.5 8.3 3.3 50 4.6 SSW 20 33 11 18 1019.3 1019.2 5.2
05/08:30am 13.4 8.3 5.8 60 3.6 SSW 22 39 12 21 1018.9 1018.8 5.2
05/08:00am 12.9 7.1 4.3 56 3.9 SW 24 37 13 20 1018.5 1018.4 5.2
05/07:30am 12.5 6.8 4.7 59 3.6 SSW 24 37 13 20 1018.2 1018.1 5.2
05/07:00am 12.7 6.5 4.2 56 3.9 SSW 26 43 14 23 1017.5 1017.4 5.2
05/06:50am 12.8 6.3 4.8 58 3.7 SSW 28 48 15 26 1017.1 1017.0 5.2
05/06:30am 12.5 6.5 5.2 61 3.4 SW 26 39 14 21 1017.4 1017.3 5.2
05/06:00am 12.2 7.1 5.8 65 3.0 SW 22 37 12 20 1017.1 1017.0 5.2
05/05:31am 12.3 5.7 4.3 58 3.6 SW 28 46 15 25 1016.9 1016.8 5.2
05/05:30am 12.4 6.2 4.1 57 3.8 SW 26 46 14 25 1016.9 1016.8 5.2
05/05:19am 12.4 5.8 4.1 57 3.8 SW 28 46 15 25 1016.8 1016.7 5.2
05/05:00am 12.5 5.9 4.2 57 3.8 SW 28 41 15 22 1016.6 1016.5 5.2
05/04:46am 12.6 6.1 4.8 59 3.6 SW 28 46 15 25 1016.5 1016.4 5.2
05/04:30am 12.5 6.0 4.5 58 3.7 SW 28 44 15 24 1016.3 1016.2 5.2
05/04:00am 12.2 5.3 6.5 68 2.7 WSW 32 50 17 27 1016.0 1015.9 5.2
05/03:30am 12.4 4.8 3.9 56 3.8 WSW 33 56 18 30 1015.5 1015.4 5.2
05/03:13am 12.4 5.6 4.9 60 3.5 SW 30 48 16 26 1015.5 1015.4 5.2
05/03:00am 12.7 4.9 4.7 58 3.7 SW 35 52 19 28 1015.5 1015.4 5.2
05/02:37am 12.9 5.4 4.3 56 3.9 SW 33 52 18 28 1015.4 1015.2 5.2
05/02:30am 13.1 5.3 4.8 57 3.8 SW 35 52 19 28 1015.2 1015.0 5.2
05/02:00am 13.0 4.8 4.9 58 3.7 SW 37 59 20 32 1015.1 1014.9 5.2
05/01:30am 11.9 2.9 7.4 74 2.2 WSW 44 82 24 44 1014.7 1014.5 5.2
05/01:00am 13.8 5.4 9.0 73 2.4 SW 43 67 23 36 1013.7 1013.5 5.2
05/12:30am 14.3 6.4 9.5 73 2.5 WSW 41 65 22 35 1012.9 1012.7 5.2
05/12:13am 14.4 7.0 10.0 75 2.3 WSW 39 57 21 31 1012.5 1012.3 5.2
05/12:00am 15.0 8.6 10.8 76 2.2 WSW 35 52 19 28 1012.1 1012.0 5.2
 
Date/Time
EDT
Temp
°C
App
Temp
°C
Dew
Point
Rel
Hum
%
Delta-T
°C
Wind Press
QNH
hPa
Press
MSL
hPa
Rain
since 9 am
mm
Dir
 
Spd
km/h
Gust
km/h
Spd
kts
Gust
kts
04/11:30pm 14.4 7.1 11.4 82 1.6 WSW 41 65 22 35 1012.0 1011.9 5.2
04/11:00pm 14.3 7.3 12.5 89 1.0 WSW 41 69 22 37 1011.8 1011.7 5.2
04/10:55pm 15.4 9.5 13.6 89 1.0 W 37 69 20 37 1011.6 1011.5 5.0
04/10:39pm 14.9 10.0 13.8 93 0.6 W 32 50 17 27 1011.4 1011.3 5.0
04/10:30pm 14.6 10.0 13.6 94 0.6 W 30 41 16 22 1011.3 1011.2 5.0
04/10:21pm 14.1 8.8 13.1 94 0.6 W 33 52 18 28 1011.4 1011.3 5.0
04/10:20pm 14.1 8.4 13.1 94 0.6 W 35 52 19 28 1011.4 1011.3 5.0
04/10:08pm 13.8 6.5 12.9 94 0.5 W 43 63 23 34 1011.4 1011.3 5.0
04/10:00pm 13.8 6.5 12.7 93 0.6 W 43 65 23 35 1011.4 1011.3 4.8
04/09:56pm 15.3 9.6 14.3 94 0.6 W 37 59 20 32 1011.4 1011.3 3.6
04/09:53pm 15.5 9.9 14.5 94 0.6 W 37 50 20 27 1010.9 1010.8 2.2
04/09:41pm 15.6 10.8 14.1 91 0.9 WNW 32 54 17 29 1010.9 1010.8 1.6
04/09:36pm 16.2 12.2 14.0 87 1.3 WNW 28 41 15 22 1010.9 1010.8 0.8
04/09:30pm 16.4 12.3 13.9 85 1.4 WNW 28 37 15 20 1010.9 1010.8 0.4
04/09:00pm 15.9 11.4 13.9 88 1.1 WNW 30 48 16 26 1010.8 1010.7 0.4
04/08:41pm 15.8 10.9 13.8 88 1.1 WNW 32 50 17 27 1010.7 1010.6 0.4
04/08:30pm 15.8 10.7 13.8 88 1.1 WNW 33 48 18 26 1010.8 1010.7 0.4
04/08:20pm 15.6 10.7 13.6 88 1.1 WNW 32 50 17 27 1010.8 1010.7 0.4
04/08:00pm 15.4 10.8 13.4 88 1.1 WNW 30 44 16 24 1011.1 1011.0 0.4
04/07:37pm 15.6 10.5 13.8 89 1.0 WNW 33 46 18 25 1010.8 1010.7 0.4
04/07:30pm 15.6 10.8 14.0 90 0.9 WNW 32 46 17 25 1010.9 1010.8 0.4
04/07:21pm 15.7 10.5 13.5 87 1.2 WNW 33 48 18 26 1011.1 1011.0 0.4
04/07:00pm 16.6 11.0 13.3 81 1.9 WNW 35 56 19 30 1011.1 1011.0 0.4
04/06:40pm 16.7 11.1 13.4 81 1.9 WNW 35 54 19 29 1011.3 1011.2 0.4
04/06:30pm 16.7 11.1 13.4 81 1.9 WNW 35 52 19 28 1011.2 1011.1 0.4
04/06:07pm 16.6 10.9 12.9 79 2.1 WNW 35 54 19 29 1011.5 1011.4 0.4
04/06:00pm 17.1 10.9 12.6 75 2.5 WNW 37 54 20 29 1011.6 1011.5 0.4
04/05:34pm 18.3 12.3 13.2 72 2.9 WNW 37 56 20 30 1011.6 1011.5 0.4
04/05:30pm 17.7 10.7 12.6 72 2.8 WNW 41 57 22 31 1011.6 1011.5 0.4
04/05:03pm 18.0 11.8 12.7 71 3.0 WNW 37 57 20 31 1011.8 1011.7 0.4
04/05:00pm 18.1 12.8 13.0 72 2.9 WNW 33 44 18 24 1012.0 1011.9 0.4
04/04:49pm 17.5 11.3 12.8 74 2.6 W 37 56 20 30 1012.1 1012.0 0.4
04/04:30pm 18.3 12.2 13.0 71 3.0 WNW 37 50 20 27 1012.2 1012.1 0.4
04/04:16pm 18.6 12.4 12.6 68 3.4 WNW 37 56 20 30 1012.1 1012.0 0.4
04/04:00pm 19.2 12.6 11.5 61 4.2 WNW 37 54 20 29 1012.5 1012.3 0.4
04/03:30pm 19.1 11.7 12.4 65 3.8 WNW 43 61 23 33 1012.8 1012.6 0.4
04/03:05pm 19.3 12.4 11.6 61 4.3 WNW 39 57 21 31 1013.1 1012.9 0.4
04/03:00pm 19.4 11.6 11.7 61 4.3 WNW 44 57 24 31 1013.1 1012.9 0.4
04/02:44pm 19.2 12.5 12.2 64 3.9 WNW 39 59 21 32 1013.2 1013.0 0.4
04/02:30pm 19.0 12.9 11.8 63 4.0 WNW 35 52 19 28 1013.3 1013.1 0.4
04/02:28pm 19.7 13.8 12.5 63 4.1 WNW 35 54 19 29 1013.5 1013.3 0.4
04/02:00pm 18.7 11.6 11.0 61 4.2 WNW 39 52 21 28 1013.7 1013.5 0.4
04/01:30pm 18.3 12.4 12.5 69 3.2 WNW 35 50 19 27 1013.9 1013.7 0.4
04/01:00pm 18.3 12.7 13.2 72 2.9 WNW 35 50 19 27 1014.2 1014.0 0.4
04/12:30pm 18.9 13.9 13.3 70 3.2 WNW 32 43 17 23 1014.5 1014.3 0.4
04/12:15pm 17.1 12.6 12.6 75 2.5 WNW 28 46 15 25 1014.7 1014.5 0.4
04/12:00pm 16.7 11.6 13.0 79 2.1 WNW 32 43 17 23 1015.1 1014.9 0.4
04/11:30am 16.9 12.8 13.8 82 1.8 NW 28 39 15 21 1015.2 1015.0 0.4
04/11:00am 15.7 12.0 13.9 89 1.0 WNW 26 35 14 19 1015.4 1015.2 0.4
04/10:30am 15.6 13.2 14.3 92 0.7 WNW 20 28 11 15 1015.3 1015.1 0.4
04/10:00am 14.9 10.7 13.4 91 0.8 WSW 28 39 15 21 1015.7 1015.6 0.0
04/09:51am 15.1 10.6 12.6 85 1.4 W 28 43 15 23 1015.6 1015.5 0.0
04/09:30am 15.9 12.6 11.5 75 2.4 W 20 28 11 15 1015.4 1015.2 0.0
04/09:00am 15.9 11.7 11.1 73 2.6 W 24 39 13 21 1015.3 1015.1 0.0
04/08:30am 15.6 12.2 11.4 76 2.3 W 20 28 11 15 1015.1 1014.9 0.0
04/08:00am 15.6 12.2 11.2 75 2.4 W 20 28 11 15 1014.9 1014.7 0.0
04/07:30am 15.7 12.0 10.2 70 2.9 WNW 20 30 11 16 1014.4 1014.2 0.0
04/07:00am 15.6 11.5 10.2 70 2.8 W 22 30 12 16 1014.4 1014.2 0.0
04/06:30am 15.6 10.5 9.3 66 3.3 W 26 35 14 19 1014.5 1014.3 0.0
04/06:00am 15.4 11.4 10.6 73 2.5 WSW 22 30 12 16 1014.5 1014.3 0.0
04/05:30am 15.2 10.9 9.3 68 3.0 W 22 32 12 17 1014.7 1014.5 0.0
04/05:00am 15.4 10.9 10.2 71 2.7 W 24 32 13 17 1014.9 1014.7 0.0
04/04:30am 15.3 10.9 10.3 72 2.6 W 24 35 13 19 1015.0 1014.8 0.0
04/04:00am 15.1 12.1 9.2 68 3.0 W 15 22 8 12 1015.2 1015.0 0.0
04/03:30am 14.7 10.8 9.3 70 2.8 W 20 30 11 16 1015.5 1015.4 0.0
04/03:00am 14.8 11.2 10.6 76 2.2 W 20 26 11 14 1015.8 1015.7 0.0
04/02:30am 14.4 11.7 11.6 83 1.5 WNW 17 24 9 13 1016.2 1016.1 0.0
04/02:00am 14.0 11.2 11.5 85 1.3 WNW 17 24 9 13 1016.3 1016.2 0.0
04/01:30am 11.6 9.3 10.3 92 0.7 NNW 13 15 7 8 1016.5 1016.4 0.0
04/01:00am 11.6 9.5 9.9 89 0.9 N 11 13 6 7 1016.6 1016.5 0.0
04/12:30am 11.9 10.1 9.5 85 1.2 WNW 9 13 5 7 1016.9 1016.8 0.0
04/12:00am 12.3 10.6 9.7 84 1.3 WNW 9 13 5 7 1017.3 1017.2 0.0
 
Date/Time
EDT
Temp
°C
App
Temp
°C
Dew
Point
Rel
Hum
%
Delta-T
°C
Wind Press
QNH
hPa
Press
MSL
hPa
Rain
since 9 am
mm
Dir
 
Spd
km/h
Gust
km/h
Spd
kts
Gust
kts
03/11:30pm 11.9 10.2 9.8 87 1.1 W 9 11 5 6 1017.6 1017.5 0.0
03/11:00pm 11.5 9.3 9.4 87 1.1 W 11 13 6 7 1017.8 1017.7 0.0
03/10:30pm 11.9 10.2 9.8 87 1.1 W 9 11 5 6 1018.0 1017.9 0.0
03/10:00pm 12.2 9.8 9.9 86 1.2 W 13 15 7 8 1018.0 1017.9 0.0
03/09:30pm 12.6 11.0 10.1 85 1.3 WNW 9 13 5 7 1017.9 1017.8 0.0
03/09:00pm 12.1 10.7 9.7 85 1.2 W 7 9 4 5 1017.5 1017.4 0.0
03/08:30pm 13.4 11.7 9.8 79 1.9 W 9 11 5 6 1017.2 1017.1 0.0
03/08:00pm 15.0 13.0 10.0 72 2.6 W 11 15 6 8 1017.1 1017.0 0.0
03/07:30pm 16.5 13.3 10.1 66 3.4 W 17 20 9 11 1017.0 1016.9 0.0
03/07:00pm 17.4 14.7 10.3 63 3.8 WSW 15 20 8 11 1016.9 1016.8 0.0
03/06:30pm 17.9 14.8 10.3 61 4.1 WSW 17 24 9 13 1016.9 1016.8 0.0
03/06:00pm 18.5 14.6 9.6 56 4.7 WSW 20 28 11 15 1016.9 1016.8 0.0
03/05:30pm 19.1 15.3 9.0 52 5.3 WSW 19 28 10 15 1016.7 1016.6 0.0
03/05:00pm 19.0 15.0 8.9 52 5.3 WSW 20 30 11 16 1016.7 1016.6 0.0
03/04:30pm 19.3 15.7 9.8 54 5.1 WSW 19 28 10 15 1016.9 1016.8 0.0
03/04:00pm 19.9 16.0 8.6 48 5.9 W 19 28 10 15 1017.1 1017.0 0.0
03/03:30pm 19.8 15.7 8.8 49 5.8 W 20 26 11 14 1017.5 1017.4 0.0
03/03:00pm 19.7 16.2 10.1 54 5.2 W 19 26 10 14 1017.8 1017.7 0.0
03/02:30pm 19.9 16.4 10.3 54 5.2 W 19 28 10 15 1017.8 1017.7 0.0
03/02:00pm 19.8 16.2 10.0 53 5.3 WSW 19 26 10 14 1018.0 1017.9 0.0
03/01:30pm 19.1 15.2 9.3 53 5.2 WSW 20 28 11 15 1018.4 1018.3 0.0
03/01:00pm 18.7 16.2 11.0 61 4.2 SW 15 24 8 13 1018.7 1018.6 0.0
03/12:30pm 19.6 16.4 9.8 53 5.2 WSW 17 24 9 13 1019.0 1018.9 0.0
03/12:00pm 17.9 15.8 11.0 64 3.7 SSW 13 19 7 10 1019.2 1019.1 0.0
03/11:30am 17.8 16.0 10.9 64 3.7 SSW 11 15 6 8 1019.2 1019.1 0.0
03/11:00am 17.8 16.0 10.9 64 3.7 SSW 11 15 6 8 1019.1 1019.0 0.0
03/10:30am 17.9 16.3 10.3 61 4.1 S 9 15 5 8 1018.8 1018.7 0.0
03/10:00am 17.8 15.9 11.8 68 3.3 S 13 19 7 10 1018.6 1018.5 0.0
03/09:30am 16.1 16.4 12.1 77 2.2 SSE 2 9 1 5 1018.5 1018.4 0.0
03/09:00am 14.0 14.8 12.7 92 0.7 CALM 0 0 0 0 1018.4 1018.3 0.0
03/08:30am 12.7 13.4 12.2 97 0.3 CALM 0 0 0 0 1018.1 1018.0 0.0
03/08:00am 9.9 9.4 9.4 97 0.2 SSE 2 6 1 3 1017.8 1017.7 0.0
03/07:30am 7.3 6.1 6.6 95 0.3 SSE 2 7 1 4 1017.7 1017.6 0.0
03/07:00am 8.8 8.4 8.2 96 0.3 CALM 0 0 0 0 1017.2 1017.1 0.0
03/06:30am 8.6 7.7 7.8 95 0.4 SSE 2 6 1 3 1017.0 1016.9 0.0
03/06:00am 9.3 8.2 8.4 94 0.4 SSE 4 9 2 5 1016.7 1016.6 0.0
03/05:30am 8.6 6.9 7.4 92 0.6 SSE 6 7 3 4 1016.6 1016.5 0.0
03/05:00am 9.6 9.2 8.2 91 0.7 CALM 0 0 0 0 1016.6 1016.5 0.0
03/04:30am 11.2 11.2 9.8 91 0.7 CALM 0 0 0 0 1016.5 1016.4 0.0
03/04:00am 11.6 11.7 10.2 91 0.7 CALM 0 0 0 0 1016.5 1016.4 0.0
03/03:30am 11.3 11.3 9.9 91 0.7 CALM 0 0 0 0 1016.5 1016.4 0.0
03/03:00am 11.2 11.2 9.8 91 0.7 CALM 0 0 0 0 1016.9 1016.8 0.0
03/02:30am 10.7 10.5 9.0 89 0.8 CALM 0 0 0 0 1017.0 1016.9 0.0
03/02:00am 11.7 10.6 9.9 89 0.9 SSE 6 9 3 5 1017.2 1017.1 0.0

Other Formats:

Comma delimited format used in spreadsheet applications
http://www.bom.gov.au/fwo/IDV60801/IDV60801.94828.axf

JavaScript Object Notation format (JSON) in row-major order
http://www.bom.gov.au/fwo/IDV60801/IDV60801.94828.json